createdAt,value
2022-12-13T00:01:28.949Z,-0.50
2022-12-13T00:03:57.958Z,-0.50
2022-12-13T00:06:25.390Z,-0.50
2022-12-13T00:08:52.745Z,-0.60
2022-12-13T00:11:19.598Z,-0.50
2022-12-13T00:13:47.980Z,-0.50
2022-12-13T00:16:22.232Z,-0.50
2022-12-13T00:18:55.335Z,-0.50
2022-12-13T00:21:23.736Z,-0.50
2022-12-13T00:23:50.733Z,-0.50
2022-12-13T00:26:20.769Z,-0.50
2022-12-13T00:28:49.332Z,-0.50
2022-12-13T00:31:53.492Z,-0.50
2022-12-13T00:34:07.089Z,-0.50
2022-12-13T00:36:33.865Z,-0.60
2022-12-13T00:39:01.579Z,-0.50
2022-12-13T00:41:33.562Z,-0.60
2022-12-13T00:44:00.877Z,-0.60
2022-12-13T00:46:28.437Z,-0.60
2022-12-13T00:48:57.735Z,-0.70
2022-12-13T00:51:26.121Z,-0.70
2022-12-13T00:53:53.292Z,-0.70
2022-12-13T00:56:23.457Z,-0.70
2022-12-13T00:58:52.314Z,-0.70
2022-12-13T01:01:21.863Z,-0.70
2022-12-13T01:03:48.546Z,-0.60
2022-12-13T01:06:19.169Z,-0.70
2022-12-13T01:08:47.238Z,-0.60
2022-12-13T01:11:14.045Z,-0.70
2022-12-13T01:13:40.844Z,-0.70
2022-12-13T01:16:09.504Z,-0.70
2022-12-13T01:18:37.023Z,-0.70
2022-12-13T01:21:08.176Z,-0.70
2022-12-13T01:23:34.982Z,-0.70
2022-12-13T01:26:06.544Z,-0.70
2022-12-13T01:28:33.550Z,-0.70
2022-12-13T01:31:03.870Z,-0.70
2022-12-13T01:33:31.924Z,-0.60
2022-12-13T01:36:04.089Z,-0.70
2022-12-13T01:38:30.982Z,-0.60
2022-12-13T01:41:16.976Z,-0.70
2022-12-13T01:43:44.918Z,-0.60
2022-12-13T01:46:12.785Z,-0.60
2022-12-13T01:48:50.062Z,-0.70
2022-12-13T01:51:21.250Z,-0.70
2022-12-13T01:53:49.676Z,-0.70
2022-12-13T01:56:22.513Z,-0.70
2022-12-13T01:58:52.080Z,-0.70
2022-12-13T02:01:18.971Z,-0.80
2022-12-13T02:03:46.095Z,-0.80
2022-12-13T02:06:17.642Z,-0.90
2022-12-13T02:08:46.719Z,-0.80
2022-12-13T02:11:14.147Z,-0.80
2022-12-13T02:13:40.897Z,-0.80
2022-12-13T02:16:26.663Z,-0.80
2022-12-13T02:19:14.797Z,-0.80
2022-12-13T02:21:50.385Z,-0.80
2022-12-13T02:24:35.572Z,-0.70
2022-12-13T02:27:16.840Z,-0.70
2022-12-13T02:30:22.554Z,-0.70
2022-12-13T02:33:26.817Z,-0.60
2022-12-13T02:36:03.330Z,-0.60
2022-12-13T02:38:41.289Z,-0.70
2022-12-13T02:41:16.960Z,-0.70
2022-12-13T02:44:22.477Z,-0.70
2022-12-13T02:46:58.064Z,-0.70
2022-12-13T02:49:29.904Z,-0.80
2022-12-13T02:51:57.999Z,-0.80
2022-12-13T02:54:24.956Z,-0.80
2022-12-13T02:56:59.006Z,-0.80
2022-12-13T02:59:32.302Z,-0.70
2022-12-13T03:02:31.468Z,-0.70
2022-12-13T03:05:46.449Z,-0.70
2022-12-13T03:08:40.854Z,-0.70
2022-12-13T03:11:15.314Z,-0.70
2022-12-13T03:13:49.161Z,-0.80
2022-12-13T03:16:48.020Z,-0.80
2022-12-13T03:19:14.832Z,-0.80
2022-12-13T03:21:49.527Z,-0.70
2022-12-13T03:24:21.267Z,-0.80
2022-12-13T03:26:49.258Z,-0.90
2022-12-13T03:29:24.147Z,-0.90
2022-12-13T03:31:54.666Z,-0.90
2022-12-13T03:34:22.519Z,-0.80
2022-12-13T03:36:54.150Z,-0.80
2022-12-13T03:39:21.526Z,-0.80
2022-12-13T03:41:49.067Z,-0.80
2022-12-13T03:44:15.888Z,-0.90
2022-12-13T03:46:42.575Z,-0.90
2022-12-13T03:49:13.599Z,-0.90
2022-12-13T03:51:43.365Z,-0.90
2022-12-13T03:54:09.988Z,-0.90
2022-12-13T03:56:36.798Z,-0.90
2022-12-13T03:59:03.482Z,0.50
2022-12-13T04:01:30.125Z,-0.90
2022-12-13T04:03:56.779Z,-0.90
2022-12-13T04:06:25.433Z,-2.10
2022-12-13T04:08:55.335Z,-0.90
2022-12-13T04:11:43.007Z,-1.40
2022-12-13T04:14:22.644Z,-0.90
2022-12-13T04:16:51.127Z,-0.80
2022-12-13T04:19:23.252Z,-0.80
2022-12-13T04:21:54.384Z,-0.70
2022-12-13T04:24:22.233Z,-0.80
2022-12-13T04:26:57.768Z,-0.80
2022-12-13T04:29:27.428Z,-0.70
2022-12-13T04:32:00.662Z,-0.70
2022-12-13T04:34:30.625Z,-1.70
2022-12-13T04:37:00.074Z,-0.70
2022-12-13T04:39:26.669Z,-0.70
2022-12-13T04:42:00.882Z,-0.70
2022-12-13T04:44:31.452Z,-0.60
2022-12-13T04:47:02.728Z,-0.60
2022-12-13T04:49:30.215Z,-0.50
2022-12-13T04:52:01.163Z,-0.40
2022-12-13T04:54:35.712Z,-0.40
2022-12-13T04:57:05.542Z,-0.40
2022-12-13T04:59:32.156Z,-0.40
2022-12-13T05:01:58.863Z,-0.40
2022-12-13T05:04:30.746Z,-0.40
2022-12-13T05:07:02.219Z,-0.40
2022-12-13T05:09:28.978Z,-0.30
2022-12-13T05:12:01.165Z,0.80
2022-12-13T05:14:30.013Z,-0.30
2022-12-13T05:16:56.889Z,-0.30
2022-12-13T05:19:31.215Z,-0.30
2022-12-13T05:22:02.078Z,-0.30
2022-12-13T05:24:32.559Z,-0.30
2022-12-13T05:26:59.767Z,-0.30
2022-12-13T05:29:27.797Z,-0.30
2022-12-13T05:31:54.582Z,-0.30
2022-12-13T05:34:21.199Z,-0.30
2022-12-13T05:36:47.828Z,-0.30
2022-12-13T05:39:28.860Z,-0.30
2022-12-13T05:42:01.798Z,-0.30
2022-12-13T05:44:30.475Z,-0.20
2022-12-13T05:46:57.099Z,-0.40
2022-12-13T05:49:23.899Z,-0.20
2022-12-13T05:51:50.667Z,-0.30
2022-12-13T05:54:17.361Z,-0.30
2022-12-13T05:56:43.976Z,-0.20
2022-12-13T05:59:10.609Z,-0.20
2022-12-13T06:01:37.262Z,-0.20
2022-12-13T06:04:10.654Z,-0.20
2022-12-13T06:06:37.484Z,-0.20
2022-12-13T06:09:04.226Z,-0.20
2022-12-13T06:11:31.850Z,-0.20
2022-12-13T06:14:00.629Z,-0.20
2022-12-13T06:16:28.184Z,0.00
2022-12-13T06:19:03.225Z,-0.20
2022-12-13T06:21:41.434Z,-0.30
2022-12-13T06:24:12.783Z,-0.30
2022-12-13T06:26:39.429Z,-0.30
2022-12-13T06:29:06.037Z,-0.20
2022-12-13T06:31:32.747Z,-0.20
2022-12-13T06:34:14.999Z,-0.20
2022-12-13T06:36:42.438Z,-0.20
2022-12-13T06:39:09.118Z,-0.20
2022-12-13T06:41:37.205Z,-0.10
2022-12-13T06:44:04.913Z,0.40
2022-12-13T06:46:32.421Z,0.50
2022-12-13T06:48:59.086Z,0.50
2022-12-13T06:51:32.497Z,0.60
2022-12-13T06:54:01.439Z,0.50
2022-12-13T06:56:28.958Z,0.50
2022-12-13T06:59:01.920Z,0.30
2022-12-13T07:01:37.732Z,0.20
2022-12-13T07:04:30.307Z,0.00
2022-12-13T07:06:55.960Z,-0.10
2022-12-13T07:09:32.689Z,-0.20
2022-12-13T07:11:59.775Z,-0.20
2022-12-13T07:14:26.683Z,-0.20
2022-12-13T07:16:59.450Z,-0.20
2022-12-13T07:19:35.185Z,-0.10
2022-12-13T07:22:05.589Z,-0.10
2022-12-13T07:24:32.599Z,-0.10
2022-12-13T07:26:59.231Z,-0.10
2022-12-13T07:29:25.810Z,-0.10
2022-12-13T07:31:53.603Z,-0.20
2022-12-13T07:34:27.775Z,-0.20
2022-12-13T07:36:54.389Z,-0.20
2022-12-13T07:39:25.723Z,-0.10
2022-12-13T07:41:55.062Z,-0.10
2022-12-13T07:44:21.726Z,0.00
2022-12-13T07:46:48.458Z,0.00
2022-12-13T07:49:15.441Z,0.00
2022-12-13T07:51:42.078Z,0.00
2022-12-13T07:54:08.744Z,0.00
2022-12-13T07:56:35.842Z,0.10
2022-12-13T07:59:02.848Z,0.30
2022-12-13T08:01:32.269Z,0.20
2022-12-13T08:03:59.021Z,0.20
2022-12-13T08:06:25.724Z,0.30
2022-12-13T08:08:56.327Z,0.30
2022-12-13T08:11:23.053Z,0.40
2022-12-13T08:13:49.747Z,0.40
2022-12-13T08:16:27.402Z,0.40
2022-12-13T08:19:01.110Z,0.40
2022-12-13T08:24:20.495Z,0.40
2022-12-13T08:26:47.048Z,0.40
2022-12-13T08:29:13.720Z,0.50
2022-12-13T08:31:50.329Z,0.50
2022-12-13T08:34:16.978Z,0.50
2022-12-13T08:36:43.614Z,0.60
2022-12-13T08:39:10.292Z,0.60
2022-12-13T08:41:39.231Z,0.60
2022-12-13T08:44:06.332Z,0.70
2022-12-13T08:46:33.352Z,0.70
2022-12-13T08:49:00.038Z,0.70
2022-12-13T08:51:32.229Z,0.70
2022-12-13T08:54:10.738Z,0.80
2022-12-13T08:56:37.983Z,0.70
2022-12-13T08:59:04.898Z,0.60
2022-12-13T09:01:31.758Z,0.70
2022-12-13T09:03:58.439Z,0.70
2022-12-13T09:06:25.228Z,0.80
2022-12-13T09:08:54.572Z,0.80
2022-12-13T09:11:33.223Z,0.80
2022-12-13T09:14:05.029Z,0.70
2022-12-13T09:16:35.723Z,0.70
2022-12-13T09:19:25.019Z,0.80
2022-12-13T09:21:51.212Z,0.90
2022-12-13T09:24:23.684Z,0.90
2022-12-13T09:26:57.310Z,0.90
2022-12-13T09:29:24.297Z,1.00
2022-12-13T09:31:53.217Z,1.00
2022-12-13T09:34:20.270Z,1.00
2022-12-13T09:36:46.956Z,1.10
2022-12-13T09:39:13.557Z,1.20
2022-12-13T09:42:01.749Z,1.20
2022-12-13T09:44:44.113Z,1.30
2022-12-13T09:47:26.909Z,1.40
2022-12-13T09:50:07.038Z,1.30
2022-12-13T09:52:41.784Z,1.40
2022-12-13T09:55:32.269Z,1.30
2022-12-13T09:58:04.783Z,1.40
2022-12-13T10:00:35.372Z,1.50
2022-12-13T10:03:02.914Z,1.50
2022-12-13T10:05:39.644Z,1.50
2022-12-13T10:08:06.561Z,1.60
2022-12-13T10:10:33.147Z,1.50
2022-12-13T10:13:25.194Z,1.60
2022-12-13T10:15:58.848Z,1.60
2022-12-13T10:18:38.434Z,1.50
2022-12-13T10:21:22.038Z,1.60
2022-12-13T10:26:39.436Z,1.70
2022-12-13T10:29:07.318Z,1.60
2022-12-13T10:31:46.666Z,1.70
2022-12-13T10:34:39.217Z,1.70
2022-12-13T10:37:24.368Z,1.80
2022-12-13T10:39:50.977Z,1.80
2022-12-13T10:42:22.551Z,2.00
2022-12-13T10:45:16.006Z,2.00
2022-12-13T10:47:50.764Z,1.90
2022-12-13T10:50:25.772Z,1.80
2022-12-13T10:52:54.183Z,1.80
2022-12-13T10:55:28.856Z,1.80
2022-12-13T10:58:19.293Z,1.80
2022-12-13T11:00:49.131Z,1.90
2022-12-13T11:03:31.114Z,2.00
2022-12-13T11:06:03.981Z,2.00
2022-12-13T11:08:30.703Z,1.40
2022-12-13T11:11:05.527Z,3.50
2022-12-13T11:13:46.414Z,5.10
2022-12-13T11:16:39.811Z,6.40
2022-12-13T11:19:18.250Z,7.10
2022-12-13T11:21:49.048Z,6.80
2022-12-13T11:24:25.796Z,5.40
2022-12-13T11:27:00.160Z,4.40
2022-12-13T11:29:27.018Z,3.70
2022-12-13T11:32:05.645Z,3.40
2022-12-13T11:34:32.803Z,3.10
2022-12-13T11:37:25.607Z,2.80
2022-12-13T11:40:16.969Z,2.70
2022-12-13T11:42:47.611Z,2.70
2022-12-13T11:45:29.245Z,2.70
2022-12-13T11:48:15.296Z,2.80
2022-12-13T11:50:45.989Z,2.90
2022-12-13T11:53:15.303Z,2.80
2022-12-13T11:55:48.559Z,2.90
2022-12-13T11:59:01.242Z,2.70
2022-12-13T12:01:31.025Z,2.70
2022-12-13T12:04:01.249Z,2.50
2022-12-13T12:06:35.207Z,2.40
2022-12-13T12:09:06.249Z,2.50
2022-12-13T12:11:42.201Z,2.60
2022-12-13T12:14:22.095Z,2.60
2022-12-13T12:16:55.999Z,2.70
2022-12-13T12:19:24.976Z,2.60
2022-12-13T12:22:13.761Z,2.40
2022-12-13T12:25:05.559Z,2.20
2022-12-13T12:28:00.457Z,2.30
2022-12-13T12:30:46.213Z,2.50
2022-12-13T12:33:40.039Z,2.60
2022-12-13T12:36:22.124Z,2.60
2022-12-13T12:39:07.628Z,2.60
2022-12-13T12:41:55.556Z,2.60
2022-12-13T12:44:36.833Z,2.60
2022-12-13T12:48:07.230Z,2.60
2022-12-13T12:50:18.923Z,2.50
2022-12-13T12:52:57.794Z,2.50
2022-12-13T12:55:42.196Z,2.50
2022-12-13T12:58:16.219Z,2.40
2022-12-13T13:01:11.983Z,2.50
2022-12-13T13:03:42.215Z,2.40
2022-12-13T13:06:23.602Z,2.40
2022-12-13T13:08:59.087Z,2.50
2022-12-13T13:11:33.105Z,2.40
2022-12-13T13:14:07.044Z,2.50
2022-12-13T13:16:37.343Z,2.50
2022-12-13T13:19:11.224Z,2.40
2022-12-13T13:21:47.307Z,2.40
2022-12-13T13:24:18.397Z,2.30
2022-12-13T13:27:11.100Z,2.20
2022-12-13T13:29:43.689Z,2.00
2022-12-13T13:32:28.761Z,2.00
2022-12-13T13:35:28.199Z,2.20
2022-12-13T13:37:55.330Z,2.30
2022-12-13T13:40:31.289Z,2.40
2022-12-13T13:43:09.856Z,2.50
2022-12-13T13:45:51.921Z,2.50
2022-12-13T13:48:29.729Z,2.50
2022-12-13T13:50:59.081Z,2.50
2022-12-13T13:54:03.063Z,2.50
2022-12-13T13:57:00.957Z,2.50
2022-12-13T14:00:06.513Z,2.50
2022-12-13T14:02:58.124Z,2.50
2022-12-13T14:05:36.670Z,2.50
2022-12-13T14:08:20.966Z,2.50
2022-12-13T14:11:09.518Z,2.50
2022-12-13T14:14:21.766Z,2.50
2022-12-13T14:16:49.151Z,2.50
2022-12-13T14:19:40.375Z,2.50
2022-12-13T14:22:13.010Z,2.50
2022-12-13T14:24:52.231Z,2.50
2022-12-13T14:27:28.634Z,2.50
2022-12-13T14:29:58.624Z,2.50
2022-12-13T14:32:30.785Z,2.50
2022-12-13T14:35:24.904Z,2.50
2022-12-13T14:37:57.690Z,2.50
2022-12-13T14:40:36.819Z,2.50
2022-12-13T14:43:04.265Z,2.60
2022-12-13T14:45:36.529Z,3.00
2022-12-13T14:48:14.422Z,3.00
2022-12-13T14:50:44.556Z,3.00
2022-12-13T14:53:27.873Z,3.00
2022-12-13T14:56:06.647Z,2.90
2022-12-13T14:58:33.515Z,2.80
2022-12-13T15:01:00.169Z,2.80
2022-12-13T15:03:28.392Z,2.70
2022-12-13T15:05:59.263Z,2.80
2022-12-13T15:08:27.007Z,2.70
2022-12-13T15:10:56.796Z,2.60
2022-12-13T15:13:29.359Z,2.50
2022-12-13T15:16:10.040Z,2.00
2022-12-13T15:18:38.344Z,2.30
2022-12-13T15:21:18.820Z,2.20
2022-12-13T15:23:48.936Z,2.20
2022-12-13T15:26:29.442Z,2.10
2022-12-13T15:28:59.600Z,2.10
2022-12-13T15:31:27.438Z,2.10
2022-12-13T15:34:01.354Z,1.90
2022-12-13T15:36:29.491Z,1.90
2022-12-13T15:38:56.090Z,2.00
2022-12-13T15:41:36.738Z,2.00
2022-12-13T15:44:37.611Z,2.00
2022-12-13T15:47:28.499Z,1.90
2022-12-13T15:50:04.643Z,2.00
2022-12-13T15:52:39.921Z,1.90
2022-12-13T15:55:09.600Z,1.80
2022-12-13T15:57:48.215Z,1.70
2022-12-13T16:00:17.759Z,1.70
2022-12-13T16:02:49.358Z,1.70
2022-12-13T16:05:26.745Z,1.70
2022-12-13T16:07:56.671Z,1.70
2022-12-13T16:10:24.123Z,1.70
2022-12-13T16:12:59.075Z,1.70
2022-12-13T16:15:30.084Z,1.70
2022-12-13T16:18:14.560Z,1.70
2022-12-13T16:20:43.860Z,2.10
2022-12-13T16:23:10.572Z,2.70
2022-12-13T16:25:53.299Z,3.60
2022-12-13T16:28:19.952Z,4.00
2022-12-13T16:31:00.758Z,3.30
2022-12-13T16:33:27.894Z,2.90
2022-12-13T16:35:55.800Z,2.40
2022-12-13T16:38:26.919Z,2.00
2022-12-13T16:40:56.013Z,1.70
2022-12-13T16:43:32.865Z,1.50
2022-12-13T16:47:15.155Z,1.40
2022-12-13T16:48:49.094Z,1.30
2022-12-13T16:51:15.685Z,1.20
2022-12-13T16:53:42.768Z,1.10
2022-12-13T16:56:11.422Z,1.00
2022-12-13T16:58:38.062Z,1.00
2022-12-13T17:01:12.275Z,0.90
2022-12-13T17:03:39.235Z,0.80
2022-12-13T17:06:08.250Z,0.90
2022-12-13T17:08:34.896Z,0.80
2022-12-13T17:11:01.512Z,0.90
2022-12-13T17:13:28.802Z,0.90
2022-12-13T17:15:58.980Z,0.90
2022-12-13T17:18:26.538Z,0.90
2022-12-13T17:20:53.847Z,0.80
2022-12-13T17:23:27.234Z,0.70
2022-12-13T17:25:58.014Z,0.70
2022-12-13T17:28:25.730Z,0.80
2022-12-13T17:30:54.947Z,0.80
2022-12-13T17:33:22.338Z,0.90
2022-12-13T17:35:49.120Z,0.20
2022-12-13T17:38:15.723Z,0.90
2022-12-13T17:40:42.368Z,0.80
2022-12-13T17:43:31.460Z,0.90
2022-12-13T17:46:11.388Z,1.00
2022-12-13T17:48:41.060Z,0.90
2022-12-13T17:51:09.812Z,1.00
2022-12-13T17:53:38.867Z,0.90
2022-12-13T17:56:07.765Z,0.90
2022-12-13T17:58:35.378Z,0.90
2022-12-13T18:01:20.520Z,0.90
2022-12-13T18:03:48.836Z,0.90
2022-12-13T18:06:15.692Z,0.70
2022-12-13T18:08:44.385Z,0.80
2022-12-13T18:13:59.110Z,0.70
2022-12-13T18:16:34.087Z,0.70
2022-12-13T18:19:05.978Z,0.80
2022-12-13T18:21:32.935Z,0.80
2022-12-13T18:23:59.784Z,0.80
2022-12-13T18:26:26.587Z,0.70
2022-12-13T18:28:53.250Z,0.80
2022-12-13T18:31:22.980Z,0.70
2022-12-13T18:33:51.388Z,0.50
2022-12-13T18:36:19.459Z,0.50
2022-12-13T18:38:46.069Z,0.60
2022-12-13T18:41:18.841Z,0.60
2022-12-13T18:43:45.929Z,0.50
2022-12-13T18:46:14.458Z,0.50
2022-12-13T18:48:41.615Z,0.50
2022-12-13T18:51:09.575Z,0.60
2022-12-13T18:53:37.871Z,0.60
2022-12-13T18:56:08.828Z,0.50
2022-12-13T18:58:39.287Z,0.50
2022-12-13T19:01:07.975Z,0.40
2022-12-13T19:03:34.681Z,0.40
2022-12-13T19:06:01.406Z,0.40
2022-12-13T19:08:28.695Z,0.40
2022-12-13T19:10:57.496Z,0.40
2022-12-13T19:13:26.143Z,0.40
2022-12-13T19:15:54.325Z,0.30
2022-12-13T19:18:21.662Z,0.30
2022-12-13T19:20:49.877Z,0.50
2022-12-13T19:23:16.804Z,0.30
2022-12-13T19:25:44.005Z,0.40
2022-12-13T19:28:17.463Z,0.30
2022-12-13T19:30:46.068Z,0.20
2022-12-13T19:33:13.489Z,0.30
2022-12-13T19:35:42.942Z,0.20
2022-12-13T19:38:09.725Z,0.20
2022-12-13T19:40:39.728Z,0.20
2022-12-13T19:43:06.380Z,0.20
2022-12-13T19:45:33.075Z,0.20
2022-12-13T19:47:59.654Z,0.20
2022-12-13T19:50:26.304Z,0.10
2022-12-13T19:52:52.870Z,0.00
2022-12-13T19:55:19.528Z,0.00
2022-12-13T19:57:46.143Z,0.00
2022-12-13T20:00:13.833Z,0.00
2022-12-13T20:02:42.082Z,0.00
2022-12-13T20:05:09.038Z,0.00
2022-12-13T20:07:35.748Z,0.00
2022-12-13T20:10:02.590Z,0.00
2022-12-13T20:12:29.599Z,0.00
2022-12-13T20:14:56.603Z,0.00
2022-12-13T20:17:23.189Z,0.00
2022-12-13T20:19:49.893Z,-0.10
2022-12-13T20:22:16.851Z,-0.10
2022-12-13T20:24:43.483Z,-0.10
2022-12-13T20:27:11.260Z,-0.10
2022-12-13T20:29:38.006Z,-0.10
2022-12-13T20:32:04.768Z,-0.10
2022-12-13T20:34:31.404Z,-0.10
2022-12-13T20:36:58.118Z,0.00
2022-12-13T20:39:24.780Z,0.00
2022-12-13T20:41:51.417Z,0.00
2022-12-13T20:44:18.271Z,0.00
2022-12-13T20:46:45.109Z,0.00
2022-12-13T20:49:11.849Z,-0.10
2022-12-13T20:51:41.304Z,-0.10
2022-12-13T20:54:08.618Z,0.00
2022-12-13T20:56:37.419Z,-0.10
2022-12-13T20:59:13.968Z,-0.10
2022-12-13T21:01:41.713Z,-0.20
2022-12-13T21:04:10.296Z,-0.20
2022-12-13T21:06:40.572Z,-0.30
2022-12-13T21:09:08.877Z,-0.30
2022-12-13T21:11:44.113Z,-0.30
2022-12-13T21:14:26.245Z,-0.20
2022-12-13T21:17:01.265Z,-0.20
2022-12-13T21:19:37.423Z,-0.20
2022-12-13T21:22:06.792Z,-0.20
2022-12-13T21:24:33.410Z,-0.20
2022-12-13T21:27:00.199Z,-0.30
2022-12-13T21:29:26.843Z,-0.30
2022-12-13T21:31:54.626Z,-0.30
2022-12-13T21:34:22.287Z,-0.40
2022-12-13T21:36:51.974Z,-0.40
2022-12-13T21:39:29.381Z,-0.40
2022-12-13T21:41:56.960Z,-0.40
2022-12-13T21:44:23.717Z,-0.40
2022-12-13T21:49:37.432Z,-0.40
2022-12-13T21:52:04.321Z,-0.40
2022-12-13T21:54:30.924Z,-0.40
2022-12-13T21:57:16.322Z,-0.50
2022-12-13T21:59:43.181Z,-0.60
2022-12-13T22:02:16.619Z,-0.60
2022-12-13T22:04:44.910Z,-0.60
2022-12-13T22:07:17.308Z,-0.30
2022-12-13T22:09:45.353Z,-0.40
2022-12-13T22:12:22.127Z,-0.40
2022-12-13T22:14:49.288Z,-0.40
2022-12-13T22:17:16.100Z,-0.50
2022-12-13T22:19:42.772Z,-0.50
2022-12-13T22:22:09.494Z,-0.50
2022-12-13T22:24:36.360Z,-1.10
2022-12-13T22:27:03.168Z,-0.30
2022-12-13T22:29:29.761Z,-0.40
2022-12-13T22:31:56.426Z,-0.30
2022-12-13T22:34:23.113Z,-0.30
2022-12-13T22:36:49.869Z,-0.40
2022-12-13T22:39:21.362Z,-0.40
2022-12-13T22:41:49.171Z,-0.40
2022-12-13T22:44:17.618Z,-0.40
2022-12-13T22:46:44.728Z,-0.40
2022-12-13T22:49:11.865Z,-0.40
2022-12-13T22:51:39.334Z,-0.50
2022-12-13T22:54:06.222Z,-0.50
2022-12-13T22:56:33.190Z,-0.50
2022-12-13T22:59:01.862Z,-0.50
2022-12-13T23:01:33.736Z,-0.50
2022-12-13T23:04:01.177Z,-0.50
2022-12-13T23:06:33.378Z,-0.50
2022-12-13T23:09:02.393Z,-0.60
2022-12-13T23:11:49.081Z,-0.10
2022-12-13T23:14:18.396Z,-0.60
2022-12-13T23:16:45.272Z,-0.50
2022-12-13T23:19:41.122Z,-0.50
2022-12-13T23:22:01.397Z,-0.50
2022-12-13T23:24:28.041Z,-0.50
2022-12-13T23:26:54.680Z,-0.50
2022-12-13T23:29:21.288Z,-0.50
2022-12-13T23:31:48.570Z,-0.60
2022-12-13T23:34:16.500Z,-0.50
2022-12-13T23:36:43.242Z,-0.60
2022-12-13T23:39:11.716Z,-0.60
2022-12-13T23:41:38.382Z,-0.60
2022-12-13T23:44:05.348Z,-0.60
2022-12-13T23:46:35.279Z,-0.60
2022-12-13T23:49:04.609Z,-1.30
2022-12-13T23:51:32.114Z,-0.60
2022-12-13T23:53:59.093Z,-0.60
2022-12-13T23:56:25.816Z,-0.60
2022-12-13T23:58:52.405Z,-0.70
